Time;durP1;ratioP1;P1;durP2;ratioP2;P2;SDS_P1;SDS_P2;PMS_P1;PMS_P2;Temp;Humidity;BMP_temperature;BMP_pressure;BME280_temperature;BME280_humidity;BME280_pressure;Samples;Min_cycle;Max_cycle;Signal;HPM_P1;HPM_P2
2021/09/26 00:01:28;;;;;;;5.97;5.20;;;16.40;99.90;;;;;;4998836;28;20239;-65
2021/09/26 00:03:57;;;;;;;5.90;4.57;;;16.40;99.90;;;;;;5000451;28;20237;-65
2021/09/26 00:06:25;;;;;;;6.80;5.37;;;16.40;99.90;;;;;;4993885;28;20263;-65
2021/09/26 00:08:54;;;;;;;6.90;5.60;;;16.40;99.90;;;;;;4996610;28;20239;-65
2021/09/26 00:11:23;;;;;;;5.47;4.63;;;16.30;99.90;;;;;;4993326;28;20773;-65
2021/09/26 00:13:51;;;;;;;7.47;4.97;;;16.50;99.90;;;;;;4996833;28;20336;-65
2021/09/26 00:16:19;;;;;;;6.00;5.33;;;16.40;99.90;;;;;;4987970;28;20334;-65
2021/09/26 00:18:49;;;;;;;6.20;5.10;;;16.40;99.90;;;;;;4989746;28;20250;-65
2021/09/26 00:21:17;;;;;;;9.77;5.23;;;16.30;99.90;;;;;;4995048;28;20259;-65
2021/09/26 00:23:46;;;;;;;7.20;5.17;;;16.30;99.90;;;;;;4996110;28;20237;-65
2021/09/26 00:26:16;;;;;;;6.07;4.37;;;16.20;99.90;;;;;;4995494;28;20288;-65
2021/09/26 00:28:44;;;;;;;5.93;5.00;;;16.40;99.90;;;;;;4996877;28;20716;-65
2021/09/26 00:31:12;;;;;;;6.03;4.70;;;16.30;99.90;;;;;;4995412;28;20705;-65
2021/09/26 00:33:40;;;;;;;5.20;4.53;;;16.40;99.90;;;;;;4996640;28;20242;-65
2021/09/26 00:36:09;;;;;;;5.37;4.67;;;16.50;99.90;;;;;;4993946;28;20721;-65
2021/09/26 00:38:37;;;;;;;5.57;5.03;;;16.50;99.90;;;;;;4990336;28;20226;-65
2021/09/26 00:41:05;;;;;;;5.03;4.43;;;16.40;99.90;;;;;;4994310;28;20304;-65
2021/09/26 00:43:36;;;;;;;8.63;4.93;;;16.50;99.90;;;;;;4995789;28;20223;-65
2021/09/26 00:46:05;;;;;;;8.33;4.70;;;16.50;99.90;;;;;;4996061;28;20530;-65
2021/09/26 00:48:34;;;;;;;5.23;4.40;;;16.60;99.90;;;;;;4988807;28;20254;-65
2021/09/26 00:51:09;;;;;;;5.77;4.73;;;16.50;99.90;;;;;;4994230;28;20675;-65
2021/09/26 00:53:38;;;;;;;8.03;5.13;;;16.50;99.90;;;;;;4987963;28;20732;-65
2021/09/26 00:56:07;;;;;;;6.07;4.47;;;16.40;99.90;;;;;;4996371;28;20268;-65
2021/09/26 00:58:38;;;;;;;5.57;4.67;;;16.50;99.90;;;;;;4997362;28;20233;-65
2021/09/26 01:01:07;;;;;;;4.60;4.10;;;16.40;99.90;;;;;;4994596;28;20321;-65
2021/09/26 01:03:35;;;;;;;4.53;4.03;;;16.40;99.90;;;;;;4994567;28;20624;-65
2021/09/26 01:06:20;;;;;;;6.73;4.10;;;16.40;99.90;;;;;;4994024;28;20241;-65
2021/09/26 01:08:59;;;;;;;5.67;4.07;;;16.40;99.90;;;;;;4993667;28;20242;-65
2021/09/26 01:11:35;;;;;;;5.07;4.10;;;16.40;99.90;;;;;;4992894;28;20316;-65
2021/09/26 01:14:11;;;;;;;7.27;4.23;;;16.30;99.90;;;;;;4997970;28;20236;-65
2021/09/26 01:16:56;;;;;;;5.53;4.60;;;16.30;99.90;;;;;;4992406;28;20272;-65
2021/09/26 01:19:41;;;;;;;4.00;3.70;;;16.30;99.90;;;;;;4993435;28;20234;-65
2021/09/26 01:22:13;;;;;;;4.37;3.70;;;16.30;99.90;;;;;;4996844;28;20233;-65
2021/09/26 01:25:12;;;;;;;4.90;4.20;;;16.30;99.90;;;;;;4990696;28;20276;-65
2021/09/26 01:28:03;;;;;;;5.23;4.20;;;16.30;99.90;;;;;;4990305;28;20292;-65
2021/09/26 01:30:41;;;;;;;6.87;4.03;;;16.40;99.90;;;;;;4995048;28;20261;-65
2021/09/26 01:33:18;;;;;;;7.10;3.90;;;16.30;99.90;;;;;;4994168;28;20241;-65
2021/09/26 01:35:56;;;;;;;5.87;3.90;;;16.40;99.90;;;;;;4996293;28;20253;-65
2021/09/26 01:38:33;;;;;;;5.77;3.90;;;16.40;99.90;;;;;;4990885;28;20752;-65
2021/09/26 01:41:07;;;;;;;4.10;3.70;;;16.50;99.90;;;;;;4998381;28;20267;-65
2021/09/26 01:43:40;;;;;;;5.10;4.00;;;16.50;99.90;;;;;;4984616;28;20240;-65
2021/09/26 01:46:13;;;;;;;5.20;3.70;;;16.50;99.90;;;;;;4994809;28;20661;-65
2021/09/26 01:48:49;;;;;;;5.10;4.30;;;16.50;99.90;;;;;;4989423;28;20681;-65
2021/09/26 01:51:18;;;;;;;4.33;3.90;;;16.40;99.90;;;;;;4995319;28;20299;-65
2021/09/26 01:53:48;;;;;;;5.57;3.67;;;16.40;99.90;;;;;;4991975;28;20249;-65
2021/09/26 01:56:17;;;;;;;4.03;3.73;;;16.50;99.90;;;;;;5000118;28;20245;-65
2021/09/26 01:58:46;;;;;;;6.63;3.90;;;16.50;99.90;;;;;;4993660;28;20463;-65
2021/09/26 02:01:16;;;;;;;7.97;4.40;;;16.40;99.90;;;;;;4994744;28;20240;-65
2021/09/26 02:03:47;;;;;;;4.60;4.17;;;16.30;99.90;;;;;;4982107;28;20744;-65
2021/09/26 02:06:16;;;;;;;5.50;3.90;;;16.40;99.90;;;;;;4987495;28;20325;-65
2021/09/26 02:08:45;;;;;;;5.90;3.87;;;16.40;99.90;;;;;;4990953;28;20253;-65
2021/09/26 02:11:15;;;;;;;4.00;3.70;;;16.50;99.90;;;;;;4991028;28;20296;-65
2021/09/26 02:13:47;;;;;;;6.67;4.20;;;16.50;99.90;;;;;;4993236;28;20240;-65
2021/09/26 02:16:17;;;;;;;4.40;4.00;;;16.50;99.90;;;;;;4993406;28;20272;-64
2021/09/26 02:18:47;;;;;;;4.80;4.00;;;16.60;99.90;;;;;;4988696;28;20257;-65
2021/09/26 02:21:17;;;;;;;4.83;4.13;;;16.50;99.90;;;;;;4995296;28;20264;-65
2021/09/26 02:23:45;;;;;;;4.13;3.73;;;16.40;99.90;;;;;;4987169;28;20250;-65
2021/09/26 02:26:14;;;;;;;4.37;3.97;;;16.40;99.90;;;;;;4992801;28;20240;-65
2021/09/26 02:28:42;;;;;;;4.07;3.70;;;16.40;99.90;;;;;;4992436;28;20819;-65
2021/09/26 02:31:12;;;;;;;5.27;4.73;;;16.40;99.90;;;;;;4993123;28;20229;-65
2021/09/26 02:33:44;;;;;;;5.93;4.03;;;16.40;99.90;;;;;;4988168;28;20264;-65
2021/09/26 02:36:13;;;;;;;4.40;3.83;;;16.40;99.90;;;;;;4997394;28;20317;-65
2021/09/26 02:38:42;;;;;;;5.77;3.90;;;16.50;99.90;;;;;;4990150;28;20651;-65
2021/09/26 02:41:15;;;;;;;6.20;4.33;;;16.50;99.90;;;;;;4990264;28;20229;-65
2021/09/26 02:43:48;;;;;;;4.17;3.73;;;16.50;99.90;;;;;;4996299;28;20512;-65
2021/09/26 02:46:23;;;;;;;6.80;4.30;;;16.50;99.90;;;;;;4990577;28;20728;-65
2021/09/26 02:48:54;;;;;;;4.30;3.50;;;16.50;99.90;;;;;;4992545;28;20756;-65
2021/09/26 02:51:23;;;;;;;6.00;4.23;;;16.50;99.90;;;;;;4990247;28;20257;-65
2021/09/26 02:53:51;;;;;;;6.97;4.90;;;16.50;99.90;;;;;;4992967;28;20244;-65
2021/09/26 02:56:20;;;;;;;5.27;4.13;;;16.50;99.90;;;;;;4988794;28;20439;-65
2021/09/26 02:58:48;;;;;;;5.80;4.40;;;16.60;99.90;;;;;;4993477;28;20734;-65
2021/09/26 03:01:16;;;;;;;5.13;4.17;;;16.70;99.90;;;;;;4982954;28;20236;-65
2021/09/26 03:03:45;;;;;;;6.57;4.50;;;16.70;99.90;;;;;;4988875;28;20334;-65
2021/09/26 03:06:15;;;;;;;5.53;4.20;;;16.60;99.90;;;;;;4988821;28;20249;-65
2021/09/26 03:08:43;;;;;;;6.80;5.00;;;16.60;99.90;;;;;;4989605;28;20354;-65
2021/09/26 03:11:11;;;;;;;5.57;4.60;;;16.60;99.90;;;;;;4994930;28;20635;-65
2021/09/26 03:13:39;;;;;;;7.43;4.93;;;16.50;99.90;;;;;;4997119;28;20237;-65
2021/09/26 03:16:07;;;;;;;6.83;5.23;;;16.50;99.90;;;;;;4994202;28;20238;-65
2021/09/26 03:18:35;;;;;;;6.90;5.53;;;16.60;99.90;;;;;;4991780;28;20301;-65
2021/09/26 03:21:04;;;;;;;6.13;4.90;;;16.60;99.90;;;;;;4997143;28;20321;-65
2021/09/26 03:23:33;;;;;;;9.40;5.07;;;16.50;99.90;;;;;;4995549;28;20316;-65
2021/09/26 03:26:01;;;;;;;5.93;5.33;;;16.60;99.90;;;;;;4994092;28;20238;-65
2021/09/26 03:28:30;;;;;;;6.53;5.73;;;16.60;99.90;;;;;;4984245;28;20261;-65
2021/09/26 03:30:58;;;;;;;8.30;4.93;;;16.50;99.90;;;;;;4991707;28;20278;-65
2021/09/26 03:33:26;;;;;;;7.23;5.97;;;16.60;99.90;;;;;;4995392;28;20235;-65
2021/09/26 03:35:54;;;;;;;8.70;6.00;;;16.50;99.90;;;;;;4996382;28;20241;-65
2021/09/26 03:38:22;;;;;;;7.77;6.83;;;16.40;99.90;;;;;;5000740;28;20704;-65
2021/09/26 03:40:52;;;;;;;6.83;6.00;;;16.50;99.90;;;;;;4993148;28;20237;-65
2021/09/26 03:43:20;;;;;;;6.60;5.90;;;16.50;99.90;;;;;;4992773;28;20233;-65
2021/09/26 03:45:51;;;;;;;9.47;6.73;;;16.60;99.90;;;;;;4989760;28;20266;-65
2021/09/26 03:48:20;;;;;;;10.67;6.90;;;16.50;99.90;;;;;;4996821;28;20261;-65
2021/09/26 03:50:50;;;;;;;8.30;7.60;;;16.60;99.90;;;;;;4999010;28;20292;-65
2021/09/26 03:53:18;;;;;;;9.23;6.90;;;16.50;99.90;;;;;;4990064;28;20266;-65
2021/09/26 03:55:47;;;;;;;9.13;7.97;;;16.60;99.90;;;;;;4988315;28;20776;-65
2021/09/26 03:58:16;;;;;;;10.07;8.80;;;16.50;99.90;;;;;;4979478;28;20487;-65
2021/09/26 04:00:44;;;;;;;9.30;8.33;;;16.50;99.90;;;;;;4989999;28;20337;-65
2021/09/26 04:03:13;;;;;;;9.17;8.23;;;16.50;99.90;;;;;;4998484;28;20232;-65
2021/09/26 04:05:41;;;;;;;12.70;8.23;;;16.50;99.90;;;;;;4998340;28;20293;-65
2021/09/26 04:08:09;;;;;;;10.07;9.03;;;16.50;99.90;;;;;;5000811;28;20237;-65
2021/09/26 04:10:37;;;;;;;9.37;8.47;;;16.50;99.90;;;;;;4995968;28;20262;-65
2021/09/26 04:13:05;;;;;;;11.53;10.00;;;16.50;99.90;;;;;;4996362;28;20600;-65
2021/09/26 04:15:35;;;;;;;9.87;8.57;;;16.50;99.90;;;;;;4999564;28;20323;-64
2021/09/26 04:18:03;;;;;;;10.63;9.40;;;16.60;99.90;;;;;;4994689;28;20234;-65
2021/09/26 04:20:31;;;;;;;9.57;8.53;;;16.70;99.90;;;;;;4996475;28;20272;-65
2021/09/26 04:22:59;;;;;;;9.93;8.93;;;16.60;99.90;;;;;;5001149;28;20240;-65
2021/09/26 04:25:27;;;;;;;9.97;8.93;;;16.60;99.90;;;;;;4995626;28;20234;-65
2021/09/26 04:27:58;;;;;;;10.43;9.10;;;16.70;99.90;;;;;;4988990;28;20238;-65
2021/09/26 04:30:26;;;;;;;10.43;9.13;;;16.60;99.90;;;;;;4992862;28;20298;-65
2021/09/26 04:32:55;;;;;;;11.17;9.43;;;16.50;99.90;;;;;;5004423;28;20261;-65
2021/09/26 04:35:24;;;;;;;10.70;9.50;;;16.50;99.90;;;;;;4991780;28;20801;-65
2021/09/26 04:37:52;;;;;;;11.07;9.50;;;16.60;99.90;;;;;;4995504;28;20240;-65
2021/09/26 04:40:20;;;;;;;11.67;10.03;;;16.50;99.90;;;;;;4992461;28;20716;-65
2021/09/26 04:42:49;;;;;;;11.00;9.90;;;16.50;99.90;;;;;;4986962;28;20614;-65
2021/09/26 04:45:17;;;;;;;12.23;9.50;;;16.40;99.90;;;;;;4990491;28;20723;-65
2021/09/26 04:47:45;;;;;;;10.43;9.33;;;16.50;99.90;;;;;;4996206;28;20329;-65
2021/09/26 04:50:15;;;;;;;12.03;9.33;;;16.60;99.90;;;;;;4998117;28;20661;-65
2021/09/26 04:52:43;;;;;;;12.80;10.60;;;16.70;99.90;;;;;;4993023;28;20244;-65
2021/09/26 04:55:12;;;;;;;12.03;10.83;;;16.50;99.90;;;;;;4999167;28;20240;-65
2021/09/26 04:57:40;;;;;;;12.73;10.83;;;16.40;99.90;;;;;;4989362;28;20304;-65
2021/09/26 05:00:10;;;;;;;12.40;11.10;;;16.40;99.90;;;;;;4988122;28;20241;-65
2021/09/26 05:02:40;;;;;;;12.77;10.87;;;16.40;99.90;;;;;;4994478;28;20431;-65
2021/09/26 05:05:09;;;;;;;12.13;10.70;;;16.50;99.90;;;;;;4993396;28;20411;-65
2021/09/26 05:07:38;;;;;;;11.77;10.60;;;16.50;99.90;;;;;;4996090;28;20230;-65
2021/09/26 05:10:08;;;;;;;14.47;11.80;;;16.50;99.90;;;;;;4999766;28;20267;-65
2021/09/26 05:12:36;;;;;;;13.37;11.33;;;16.50;99.90;;;;;;4991277;28;20705;-65
2021/09/26 05:15:05;;;;;;;12.70;11.40;;;16.40;99.90;;;;;;4992444;28;20251;-65
2021/09/26 05:17:34;;;;;;;14.27;10.90;;;16.40;99.90;;;;;;4995047;28;20709;-65
2021/09/26 05:20:03;;;;;;;11.87;10.67;;;16.40;99.90;;;;;;4997393;28;20613;-65
2021/09/26 05:22:36;;;;;;;12.57;10.43;;;16.50;99.90;;;;;;4988991;28;21145;-65
2021/09/26 05:25:10;;;;;;;12.37;11.07;;;16.50;99.90;;;;;;4991763;28;20249;-65
2021/09/26 05:27:39;;;;;;;12.67;11.37;;;16.50;99.90;;;;;;4988507;28;20229;-65
2021/09/26 05:30:08;;;;;;;13.03;10.87;;;16.50;99.90;;;;;;4996172;28;20763;-65
2021/09/26 05:32:37;;;;;;;13.30;11.30;;;16.40;99.90;;;;;;4987732;28;20258;-65
2021/09/26 05:35:07;;;;;;;13.40;12.10;;;16.50;99.90;;;;;;4993338;28;20649;-65
2021/09/26 05:37:36;;;;;;;11.60;10.40;;;16.50;99.90;;;;;;4991296;28;20230;-65
2021/09/26 05:40:07;;;;;;;13.50;11.43;;;16.70;99.90;;;;;;4986046;28;20748;-65
2021/09/26 05:42:35;;;;;;;14.83;12.10;;;16.60;99.90;;;;;;4977732;28;20797;-65
2021/09/26 05:45:04;;;;;;;13.20;11.60;;;16.50;99.90;;;;;;4991582;28;20228;-65
2021/09/26 05:47:32;;;;;;;12.50;11.33;;;16.50;99.90;;;;;;4992892;28;20312;-65
2021/09/26 05:50:00;;;;;;;13.40;12.00;;;16.60;99.90;;;;;;4996095;28;20630;-65
2021/09/26 05:52:28;;;;;;;15.90;12.33;;;16.60;99.90;;;;;;4984446;28;20230;-65
2021/09/26 05:54:56;;;;;;;13.43;12.13;;;16.50;99.90;;;;;;4991193;28;20656;-65
2021/09/26 05:57:26;;;;;;;13.00;11.70;;;16.50;99.90;;;;;;4999472;28;20228;-65
2021/09/26 05:59:54;;;;;;;14.50;13.10;;;16.50;99.90;;;;;;4993293;28;20245;-65
2021/09/26 06:02:23;;;;;;;13.80;12.50;;;16.50;99.90;;;;;;4989672;28;20249;-65
2021/09/26 06:04:52;;;;;;;13.30;11.90;;;16.50;99.90;;;;;;4994586;28;20260;-65
2021/09/26 06:07:20;;;;;;;15.10;12.53;;;16.60;99.90;;;;;;4994490;28;20241;-65
2021/09/26 06:09:48;;;;;;;14.50;13.10;;;16.60;99.90;;;;;;4994698;28;20322;-65
2021/09/26 06:12:16;;;;;;;14.23;12.93;;;16.50;99.90;;;;;;4992712;28;20296;-65
2021/09/26 06:14:46;;;;;;;14.57;13.17;;;16.60;99.90;;;;;;4995040;28;20259;-65
2021/09/26 06:17:14;;;;;;;15.43;12.50;;;16.60;99.90;;;;;;4988708;28;20245;-64
2021/09/26 06:19:42;;;;;;;14.63;12.07;;;16.60;99.90;;;;;;4990550;28;20322;-65
2021/09/26 06:22:10;;;;;;;15.73;12.20;;;16.60;99.90;;;;;;4990234;28;20233;-65
2021/09/26 06:24:38;;;;;;;12.90;11.60;;;16.70;99.90;;;;;;4992918;28;20758;-65
2021/09/26 06:27:07;;;;;;;12.70;11.43;;;16.80;99.90;;;;;;4990134;28;20247;-64
2021/09/26 06:29:37;;;;;;;12.90;11.70;;;16.80;99.90;;;;;;4997940;28;20239;-65
2021/09/26 06:32:08;;;;;;;11.67;10.57;;;17.00;99.90;;;;;;4992253;28;20227;-65
2021/09/26 06:34:37;;;;;;;11.60;10.50;;;17.10;99.90;;;;;;4996957;28;20234;-65
2021/09/26 06:37:06;;;;;;;11.90;10.77;;;17.30;99.90;;;;;;4991134;28;20638;-65
2021/09/26 06:39:35;;;;;;;11.37;10.27;;;17.40;99.90;;;;;;4978533;28;20327;-65
2021/09/26 06:42:04;;;;;;;11.20;10.10;;;17.50;99.90;;;;;;4995672;28;20238;-65
2021/09/26 06:44:33;;;;;;;10.57;9.53;;;17.50;99.90;;;;;;4991758;28;20249;-64
2021/09/26 06:47:01;;;;;;;11.97;9.70;;;17.80;99.90;;;;;;4996951;28;20231;-65
2021/09/26 06:49:31;;;;;;;11.30;10.20;;;18.00;99.90;;;;;;4986943;28;20653;-65
2021/09/26 06:52:00;;;;;;;10.20;9.27;;;18.20;99.90;;;;;;4994645;28;20236;-64
2021/09/26 06:54:28;;;;;;;9.90;8.97;;;18.40;99.90;;;;;;5002441;28;20699;-64
2021/09/26 06:56:56;;;;;;;9.77;8.70;;;18.50;99.90;;;;;;4993331;28;20647;-64
2021/09/26 06:59:24;;;;;;;10.37;9.33;;;18.60;99.90;;;;;;4988917;28;20240;-64
2021/09/26 07:01:53;;;;;;;8.83;8.00;;;18.80;99.90;;;;;;4988939;28;20267;-64
2021/09/26 07:04:21;;;;;;;9.17;8.23;;;19.00;99.90;;;;;;4992372;28;20258;-64
2021/09/26 07:06:50;;;;;;;8.23;7.43;;;19.20;99.90;;;;;;4994879;28;20251;-64
2021/09/26 07:09:19;;;;;;;10.13;8.23;;;19.40;99.90;;;;;;4995506;28;20238;-64
2021/09/26 07:11:47;;;;;;;8.20;7.40;;;19.50;99.90;;;;;;4992702;28;20455;-64
2021/09/26 07:14:15;;;;;;;12.50;9.03;;;19.50;99.90;;;;;;4996014;28;20243;-64
2021/09/26 07:16:43;;;;;;;8.60;7.80;;;19.40;99.90;;;;;;4993106;28;20246;-64
2021/09/26 07:19:12;;;;;;;8.57;7.77;;;19.50;99.90;;;;;;4991055;28;20337;-64
2021/09/26 07:21:40;;;;;;;8.40;7.60;;;19.70;99.90;;;;;;4994311;28;20254;-64
2021/09/26 07:24:10;;;;;;;7.87;7.07;;;19.80;99.90;;;;;;4982434;28;20269;-64
2021/09/26 07:26:38;;;;;;;8.30;7.50;;;20.00;99.90;;;;;;4974725;28;20232;-64
2021/09/26 07:29:07;;;;;;;8.10;6.83;;;20.20;99.90;;;;;;4978414;28;20670;-64
2021/09/26 07:31:35;;;;;;;7.50;6.10;;;20.30;99.90;;;;;;4978215;28;20785;-64
2021/09/26 07:34:03;;;;;;;6.90;6.17;;;20.50;99.90;;;;;;4979584;28;20244;-64
2021/09/26 07:36:32;;;;;;;6.77;6.17;;;20.60;99.90;;;;;;4981379;28;20319;-64
2021/09/26 07:39:01;;;;;;;7.33;6.63;;;20.80;99.90;;;;;;4976809;28;20276;-64
2021/09/26 07:41:30;;;;;;;7.40;6.60;;;20.90;99.90;;;;;;4982575;28;20854;-64
2021/09/26 07:44:00;;;;;;;6.70;5.83;;;21.20;99.90;;;;;;4980432;28;20249;-64
2021/09/26 07:46:29;;;;;;;7.40;6.23;;;21.30;99.90;;;;;;4980557;28;20242;-64
2021/09/26 07:48:57;;;;;;;6.20;5.60;;;21.30;99.90;;;;;;4969024;28;20307;-64
2021/09/26 07:51:25;;;;;;;6.43;5.63;;;21.40;99.90;;;;;;4973705;28;20316;-64
2021/09/26 07:53:53;;;;;;;6.80;6.10;;;21.50;99.90;;;;;;4977600;28;20249;-64
2021/09/26 07:56:22;;;;;;;7.00;6.13;;;21.70;99.90;;;;;;4980753;28;20334;-64
2021/09/26 07:58:51;;;;;;;6.23;5.27;;;21.60;99.90;;;;;;4973492;28;20613;-64
2021/09/26 08:01:19;;;;;;;6.50;5.40;;;21.70;99.90;;;;;;4977602;28;20273;-64
2021/09/26 08:03:47;;;;;;;5.90;5.30;;;21.90;99.90;;;;;;4978143;28;20272;-64
2021/09/26 08:06:18;;;;;;;6.13;5.63;;;22.00;99.90;;;;;;4977040;28;20620;-64
2021/09/26 08:08:46;;;;;;;6.50;5.10;;;22.20;99.90;;;;;;4980697;28;20267;-64
2021/09/26 08:11:14;;;;;;;6.07;5.03;;;22.30;99.90;;;;;;4986777;28;20292;-64
2021/09/26 08:13:42;;;;;;;5.73;5.23;;;22.40;99.90;;;;;;4986416;28;21301;-64
2021/09/26 08:16:12;;;;;;;5.70;4.97;;;22.50;99.90;;;;;;4985825;28;20778;-64
2021/09/26 08:18:40;;;;;;;5.67;5.13;;;22.50;99.90;;;;;;4980572;28;20247;-64
2021/09/26 08:21:09;;;;;;;5.40;4.83;;;22.50;99.90;;;;;;4982870;28;20241;-64
2021/09/26 08:23:37;;;;;;;5.33;4.83;;;22.70;99.90;;;;;;4975193;28;20241;-64
2021/09/26 08:26:05;;;;;;;6.30;4.97;;;22.90;99.90;;;;;;4981144;28;20363;-64
2021/09/26 08:28:37;;;;;;;6.10;4.77;;;22.80;99.90;;;;;;4975232;28;20233;-64
2021/09/26 08:31:06;;;;;;;5.30;4.90;;;22.90;99.90;;;;;;4977602;28;20744;-64
2021/09/26 08:33:35;;;;;;;5.37;4.80;;;22.70;99.90;;;;;;4976768;28;20553;-64
2021/09/26 08:36:04;;;;;;;5.30;4.80;;;22.70;99.90;;;;;;4977821;28;20268;-64
2021/09/26 08:38:32;;;;;;;5.30;4.80;;;22.90;99.90;;;;;;4972119;28;20244;-64
2021/09/26 08:41:01;;;;;;;6.63;4.70;;;23.00;99.90;;;;;;4981382;28;20660;-64
2021/09/26 08:43:29;;;;;;;5.60;4.70;;;23.00;99.90;;;;;;4981932;28;20756;-64
2021/09/26 08:45:58;;;;;;;5.20;4.80;;;22.90;99.90;;;;;;4978982;28;20240;-64
2021/09/26 08:48:28;;;;;;;5.33;4.83;;;22.90;99.90;;;;;;4973619;28;20233;-64
2021/09/26 08:50:58;;;;;;;5.03;4.57;;;22.90;99.90;;;;;;4980375;28;20244;-64
2021/09/26 08:53:27;;;;;;;4.50;4.10;;;23.00;99.90;;;;;;4976410;28;20764;-64
2021/09/26 08:55:56;;;;;;;6.70;4.60;;;23.20;99.90;;;;;;4978040;28;20249;-64
2021/09/26 08:58:25;;;;;;;5.60;4.20;;;23.40;99.90;;;;;;4977276;28;20652;-64
2021/09/26 09:00:54;;;;;;;4.20;3.80;;;23.50;99.90;;;;;;4977680;28;20273;-64
2021/09/26 09:03:23;;;;;;;6.13;3.93;;;23.30;99.90;;;;;;4983675;28;20245;-64
2021/09/26 09:05:52;;;;;;;4.83;4.40;;;23.30;99.90;;;;;;4983281;28;20238;-64
2021/09/26 09:08:24;;;;;;;5.43;4.07;;;23.60;99.90;;;;;;4990841;28;20241;-63
2021/09/26 09:10:55;;;;;;;5.43;4.10;;;23.90;99.90;;;;;;4994120;28;20299;-64
2021/09/26 09:13:29;;;;;;;5.17;4.13;;;24.10;99.90;;;;;;4987147;28;20238;-63
2021/09/26 09:16:04;;;;;;;4.90;4.47;;;24.20;99.90;;;;;;4988099;28;20249;-64
2021/09/26 09:18:42;;;;;;;4.43;4.03;;;24.20;99.90;;;;;;4992953;28;20248;-64
2021/09/26 09:21:20;;;;;;;4.20;3.70;;;24.40;99.90;;;;;;4989787;28;20327;-64
2021/09/26 09:23:54;;;;;;;4.83;4.23;;;24.40;99.90;;;;;;4991588;28;20248;-64
2021/09/26 09:26:41;;;;;;;4.73;3.97;;;24.50;99.90;;;;;;4989188;28;20331;-64
2021/09/26 09:29:09;;;;;;;4.40;4.00;;;24.30;99.90;;;;;;4989615;28;20661;-64
2021/09/26 09:31:49;;;;;;;4.10;3.67;;;24.40;99.90;;;;;;4991715;28;20257;-64
2021/09/26 09:34:31;;;;;;;3.80;3.50;;;24.50;99.90;;;;;;5000688;28;20316;-64
2021/09/26 09:37:12;;;;;;;5.60;3.53;;;25.00;99.90;;;;;;4991404;28;20289;-64
2021/09/26 09:40:03;;;;;;;4.27;3.87;;;25.30;99.90;;;;;;4996305;28;20229;-64
2021/09/26 09:42:39;;;;;;;3.97;3.57;;;25.40;99.90;;;;;;4987770;28;20238;-64
2021/09/26 09:45:19;;;;;;;4.87;3.83;;;25.50;99.90;;;;;;4993119;28;20240;-64
2021/09/26 09:48:05;;;;;;;4.47;3.10;;;25.70;99.90;;;;;;4989737;28;20470;-64
2021/09/26 09:50:44;;;;;;;4.30;3.53;;;25.90;99.90;;;;;;4985597;28;20493;-64
2021/09/26 09:53:30;;;;;;;4.00;3.60;;;25.90;99.90;;;;;;4994721;28;20241;-64
2021/09/26 09:56:19;;;;;;;4.39;3.25;;;26.00;99.90;;;;;;2166263;28;10003711;-64
2021/09/26 09:58:50;;;;;;;4.07;3.17;;;25.80;99.90;;;;;;4299184;28;10000969;-64
2021/09/26 10:01:26;;;;;;;3.90;3.57;;;25.40;99.90;;;;;;4983782;28;20244;-64
2021/09/26 10:03:55;;;;;;;3.73;3.43;;;25.40;99.90;;;;;;4990743;28;20252;-64
2021/09/26 10:06:36;;;;;;;5.57;3.97;;;25.70;99.90;;;;;;4993239;28;20239;-65
2021/09/26 10:09:18;;;;;;;4.10;3.67;;;26.00;99.90;;;;;;4994041;28;20241;-64
2021/09/26 10:11:49;;;;;;;3.70;3.40;;;26.10;99.90;;;;;;4978073;28;20277;-67
2021/09/26 10:14:18;;;;;;;3.57;3.27;;;25.90;99.90;;;;;;4982439;28;20305;-67
2021/09/26 10:16:47;;;;;;;4.50;3.57;;;25.90;99.90;;;;;;4982905;28;20716;-68
2021/09/26 10:19:20;;;;;;;4.00;3.63;;;25.90;99.90;;;;;;4980964;28;20333;-68
2021/09/26 10:21:50;;;;;;;4.33;3.47;;;26.20;99.90;;;;;;4982505;28;20241;-67
2021/09/26 10:24:20;;;;;;;3.50;3.20;;;26.40;99.90;;;;;;4981391;28;20666;-66
2021/09/26 10:26:51;;;;;;;3.77;2.97;;;26.50;99.90;;;;;;4984003;28;20633;-67
2021/09/26 10:29:22;;;;;;;3.47;3.17;;;26.90;99.90;;;;;;4982277;28;20601;-67
2021/09/26 10:31:51;;;;;;;3.27;2.97;;;26.60;99.90;;;;;;4981595;28;20248;-65
2021/09/26 10:34:21;;;;;;;3.03;2.83;;;26.40;99.90;;;;;;4979466;28;20237;-65
2021/09/26 10:36:50;;;;;;;3.17;2.97;;;26.70;99.90;;;;;;4981856;28;20236;-63
2021/09/26 10:39:19;;;;;;;3.30;3.00;;;27.00;99.90;;;;;;4980969;28;20344;-63
2021/09/26 10:42:14;;;;;;;4.33;3.00;;;27.00;99.90;;;;;;4979484;28;20759;-64
2021/09/26 10:44:45;;;;;;;3.53;3.30;;;27.00;99.90;;;;;;4963899;28;20638;-64
2021/09/26 10:47:18;;;;;;;3.60;3.30;;;26.80;99.90;;;;;;4983344;28;20252;-64
2021/09/26 10:49:50;;;;;;;3.27;2.97;;;26.70;99.90;;;;;;4979192;28;20323;-64
2021/09/26 10:52:32;;;;;;;4.67;3.10;;;26.80;99.90;;;;;;4983090;28;20267;-63
2021/09/26 10:55:29;;;;;;;3.37;3.07;;;26.80;99.90;;;;;;4982014;28;20324;-63
2021/09/26 10:58:19;;;;;;;3.20;2.90;;;26.90;99.90;;;;;;4977914;28;20746;-63
2021/09/26 11:00:58;;;;;;;5.87;3.20;;;27.30;99.90;;;;;;4980966;28;20332;-64
2021/09/26 11:03:39;;;;;;;3.33;3.03;;;27.30;99.90;;;;;;4978751;28;20315;-64
2021/09/26 11:06:26;;;;;;;4.70;3.13;;;27.20;99.90;;;;;;4979829;28;20272;-63
2021/09/26 11:08:55;;;;;;;3.77;3.47;;;27.40;99.90;;;;;;4978106;28;20310;-64
2021/09/26 11:11:45;;;;;;;3.77;3.20;;;27.30;99.90;;;;;;4981170;28;20248;-63
2021/09/26 11:14:16;;;;;;;3.00;2.70;;;27.40;99.90;;;;;;4979808;28;20225;-63
2021/09/26 11:16:53;;;;;;;3.33;3.03;;;27.60;99.90;;;;;;4982877;28;20246;-63
2021/09/26 11:19:22;;;;;;;3.80;3.17;;;27.50;99.90;;;;;;4977452;28;20253;-64
2021/09/26 11:22:17;;;;;;;3.30;3.00;;;26.90;99.90;;;;;;4979386;28;20239;-63
2021/09/26 11:25:07;;;;;;;3.40;3.03;;;27.00;99.90;;;;;;4983484;28;20330;-63
2021/09/26 11:27:40;;;;;;;3.83;3.53;;;27.20;99.90;;;;;;4979669;28;20352;-63
2021/09/26 11:30:28;;;;;;;3.70;3.10;;;27.20;99.90;;;;;;4982172;28;20323;-63
2021/09/26 11:32:59;;;;;;;3.20;2.90;;;26.90;99.90;;;;;;4983744;28;20259;-64
2021/09/26 11:35:30;;;;;;;5.47;3.53;;;27.00;99.90;;;;;;4981249;28;20247;-64
2021/09/26 11:38:00;;;;;;;4.10;3.30;;;27.10;99.90;;;;;;4984107;28;20241;-64
2021/09/26 11:40:53;;;;;;;5.50;3.40;;;26.70;99.90;;;;;;4979589;28;20241;-64
2021/09/26 11:43:23;;;;;;;5.00;3.13;;;26.50;99.90;;;;;;4984214;28;20790;-64
2021/09/26 11:45:57;;;;;;;6.20;3.70;;;26.40;99.90;;;;;;4983620;28;20682;-64
2021/09/26 11:48:34;;;;;;;4.20;3.40;;;26.30;99.90;;;;;;4979031;28;20598;-64
2021/09/26 11:51:08;;;;;;;4.60;3.73;;;26.50;99.90;;;;;;4981996;28;20324;-64
2021/09/26 11:53:36;;;;;;;3.80;3.50;;;26.40;99.90;;;;;;4983224;28;20706;-64
2021/09/26 11:56:17;;;;;;;3.83;3.50;;;26.40;99.90;;;;;;4986630;28;20253;-63
2021/09/26 11:58:45;;;;;;;3.53;3.23;;;26.30;99.90;;;;;;4980043;28;20584;-63
2021/09/26 12:01:25;;;;;;;6.40;3.73;;;26.10;99.90;;;;;;4982071;28;20234;-64
2021/09/26 12:04:08;;;;;;;4.23;3.50;;;25.90;99.90;;;;;;4972626;28;20243;-64
2021/09/26 12:06:36;;;;;;;4.13;3.67;;;26.00;99.90;;;;;;4977022;28;20808;-64
2021/09/26 12:09:04;;;;;;;6.77;3.80;;;25.90;99.90;;;;;;4975992;28;20234;-63
2021/09/26 12:11:45;;;;;;;5.27;4.07;;;25.70;99.90;;;;;;4979000;28;20255;-64
2021/09/26 12:14:21;;;;;;;5.73;3.90;;;25.60;99.90;;;;;;4973820;28;20322;-64
2021/09/26 12:16:51;;;;;;;4.27;3.70;;;25.70;99.90;;;;;;4975263;28;20291;-64
2021/09/26 12:19:19;;;;;;;4.60;3.87;;;25.40;99.90;;;;;;4975189;28;20584;-64
2021/09/26 12:21:47;;;;;;;4.13;3.73;;;25.30;99.90;;;;;;4977153;28;20369;-64
2021/09/26 12:24:17;;;;;;;4.70;3.80;;;25.10;99.90;;;;;;4972940;28;22018;-64
2021/09/26 12:26:49;;;;;;;5.30;4.80;;;25.20;99.90;;;;;;4978989;28;20600;-64
2021/09/26 12:29:22;;;;;;;5.53;4.60;;;25.30;99.90;;;;;;4978128;28;20242;-64
2021/09/26 12:31:54;;;;;;;4.07;3.77;;;25.40;99.90;;;;;;4976600;28;20655;-64
2021/09/26 12:34:30;;;;;;;5.17;4.30;;;25.60;99.90;;;;;;4972852;28;20343;-64
2021/09/26 12:36:59;;;;;;;5.63;4.57;;;25.60;99.90;;;;;;4975734;28;20350;-64
2021/09/26 12:39:31;;;;;;;7.47;5.40;;;25.40;99.90;;;;;;4978192;28;21354;-64
2021/09/26 12:41:59;;;;;;;6.20;4.70;;;25.30;99.90;;;;;;4976939;28;20364;-64
2021/09/26 12:44:33;;;;;;;6.93;4.50;;;25.20;99.90;;;;;;4972222;28;20249;-64
2021/09/26 12:47:06;;;;;;;4.73;4.33;;;25.30;99.90;;;;;;4976761;28;20271;-64
2021/09/26 12:49:40;;;;;;;5.83;4.53;;;25.40;99.90;;;;;;4977716;28;20715;-64
2021/09/26 12:52:12;;;;;;;4.80;4.33;;;25.30;99.90;;;;;;4977804;28;20264;-64
2021/09/26 12:54:46;;;;;;;5.90;4.30;;;25.20;99.90;;;;;;4974352;28;20332;-64
2021/09/26 12:57:18;;;;;;;5.27;4.13;;;25.00;99.90;;;;;;4976241;28;20238;-64
2021/09/26 12:59:48;;;;;;;6.30;4.53;;;25.00;99.90;;;;;;4976205;28;20255;-64
2021/09/26 13:02:18;;;;;;;5.53;4.57;;;24.70;99.90;;;;;;4974829;28;20239;-63
2021/09/26 13:05:02;;;;;;;4.93;4.30;;;24.60;99.90;;;;;;4972101;28;20330;-64